Station: Lake Eildon  

  Atmospheric Gas Attenuation - ITU Rec 676-11   ----------------- dB/100km -----------------
Date Time Temp RH % AH g/m3 Dew Point Wind Direction Speed kph Gust kph Barometer mB Rainfall Since 9am 24GHz 47GHz 76GHz 122GHz 134GHz 241GHz
08/05 09:00 11.4 90 9.24 9.8 0 1013.1 15 21.1 27.7 43.7 114.9 110.3 379.9
07/05 09:00 3.8 93 5.84 2.8 0 1013.1 9 14.1 24.2 33.2 86.6 72.5 246.2
06/05 09:00 9.9 83 7.75 7.2 0 1013.1 0 17.9 25.6 38.3 100.3 91.8 315.0
05/05 09:00 12 88 9.38 10.1 0 1013.1 3 21.4 27.7 44.0 115.6 111.4 383.8
04/05 09:00 12.7 80 8.91 9.4 9 1013.1 24 20.3 26.7 41.6 109.3 104.0 357.9
03/05 09:00 18.5 76 12.02 14.2 19 1013.1 6 26.6 30.1 51.2 134.9 137.6 476.2
02/05 09:00 16.7 68 9.66 10.8 0 1013.1 0 21.7 26.7 42.5 111.8 108.5 374.2
01/05 09:00 13.6 84 9.89 11 0 1013.1 0 22.4 28.1 45.2 118.9 116.1 400.5
30/04 09:00 13.2 80 9.19 9.9 0 1013.1 0 20.9 27.0 42.5 111.7 107.1 368.8
29/04 09:00 12.1 93 9.97 11 0 1013.1 0 22.6 28.7 46.4 122.1 119.6 412.3
28/04 09:00 12.4 88 9.62 10.5 0 1013.1 0 21.8 28.0 44.8 117.7 114.2 393.5
27/04 09:00 10.6 91 8.88 9.2 0 1013.1 0 20.3 27.3 42.6 111.9 106.4 366.2
26/04 09:00 14 72 8.68 9.1 7 1013.1 0 19.8 26.0 40.0 105.0 99.2 341.3
24/04 09:00 11.7 88 9.21 9.8 4 1013.1 0 21.0 27.5 43.4 114.1 109.5 377.0
23/04 09:00 11.5 95 9.81 10.7 4 1013.1 0 22.3 28.6 46.1 121.2 118.2 407.5
22/04 09:00 1013.1
21/04 09:00 13.1 91 10.38 11.6 4 1013.1 0 23.4 29.1 47.6 125.3 123.8 427.2
20/04 09:00 9.6 75 6.87 5.5 4 1013.1 16.1 24.3 34.8 91.2 80.5 275.1
19/04 09:00 6.1 88 6.43 4.3 0 1013.1 0 15.3 24.5 34.6 90.5 78.2 266.7
18/04 09:00 7.8 94 7.67 6.9 0 1013.1 0.2 17.9 26.1 39.0 102.2 93.3 319.7
17/04 09:00 12.5 69 7.59 7 4 1013.1 5 17.5 24.6 36.4 95.4 86.7 297.4
16/04 09:00 14.3 83 10.2 11.5 0 1013.1 0 23.0 28.4 46.1 121.3 119.4 411.9
15/04 09:00 14.5 82 10.2 11.4 0 1013.1 0 23.0 28.3 46.0 121.0 119.0 410.8
14/04 09:00 12 89 9.49 10.3 0 1013.1 0.2 21.6 27.9 44.4 116.8 113.0 389.2
13/04 09:00 12.2 87 9.39 10.1 0 1013.1 1 21.4 27.7 43.9 115.4 111.3 383.3
12/04 09:00 9.9 82 7.66 7 0 1013.1 1 17.8 25.5 37.9 99.3 90.6 310.7
11/04 09:00 8.6 77 6.62 4.8 0 1013.1 2 15.6 24.2 34.3 89.7 78.2 267.0
10/04 09:00 16 61 8.31 8.6 4 1013.1 4 18.9 24.8 37.6 98.6 92.0 316.2
09/04 09:00 14.7 91 11.46 13.3 0 1013.1 5 25.7 30.4 51.3 135.1 136.5 471.8
08/04 09:00 11.1 87 8.76 9.1 0 1013.1 0 20.1 27.0 41.8 109.9 104.1 358.0
07/04 09:00 16.8 93 13.3 15.6 0 1013.1 3 29.5 33.0 58.0 153.1 159.3 551.7
06/04 09:00 14.1 89 10.8 12.3 0 1013.1 2 24.3 29.5 48.8 128.5 128.1 442.4
05/04 09:00 13.7 75 8.88 9.4 0 1013.1 20.2 26.4 41.0 107.6 102.2 351.9
04/04 09:00 9.3 84 7.55 6.8 0 1013.1 0 17.5 25.5 37.7 98.9 89.8 307.9
03/04 09:00 9.8 96 8.91 9.2 0 1013.1 0 20.5 27.6 43.2 113.5 108.0 371.5
02/04 09:00 13.7 93 11.01 12.6 0 1013.1 0 24.8 30.0 50.0 131.6 131.8 455.2
01/04 09:00 20.8 54 9.78 11.3 0 1013.1 0 21.7 25.7 40.9 107.4 104.5 360.6
31/03 09:00 12.4 86 9.4 10.1 0 1013.1 0 21.4 27.6 43.8 115.2 111.1 382.8
30/03 09:00 12 95 10.13 11.2 4 1013.1 0 23.0 29.0 47.2 124.2 122.0 420.8
29/03 09:00 8.9 93 8.15 7.9 0 1013.1 0 18.9 26.6 40.4 106.1 98.5 338.3
28/03 09:00 10.3 66 6.32 4.3 0 1013.1 0 14.9 23.2 32.4 84.7 72.7 247.9
27/03 09:00 10.7 95 9.33 9.9 0 1013.1 2 21.3 28.1 44.5 116.9 112.6 387.8
25/03 09:00 17 94 13.6 16 0 1013.1 14 30.1 33.4 59.2 156.3 163.3 565.8
24/03 09:00 17.7 79 11.92 14.1 4 1013.1 0 26.5 30.2 51.3 135.2 137.6 476.2
23/03 09:00 16 80 10.9 12.6 4 1013.1 0 24.4 29.0 48.0 126.5 126.4 436.5
22/03 09:00 14.6 93 11.64 13.5 0 1013.1 0 26.1 30.8 52.2 137.4 139.3 481.5
21/03 09:00 14.4 96 11.87 13.7 0 1013.1 0 26.6 31.3 53.3 140.5 143.0 494.5
20/03 09:00 14.9 92 11.73 13.7 0 1013.1 0 26.2 30.8 52.4 137.9 140.1 484.2
19/03 09:00 17.4 92 13.63 16.1 0 1013.1 0 30.2 33.3 59.1 155.8 162.9 564.3
18/03 09:00 14 97 11.7 13.6 0 1013.1 0 26.2 31.1 52.8 139.2 141.3 488.4
17/03 09:00 18.5 95 15.03 17.7 0 1013.1 27 33.1 35.5 64.6 170.6 181.5 629.1
16/03 09:00 19.8 64 10.93 12.8 0 1013.1 0 24.2 27.8 45.9 120.8 120.7 417.2
15/03 09:00 14.9 68 8.67 9.1 0 1013.1 0 19.7 25.7 39.5 103.7 97.9 337.0
14/03 09:00 9.4 89 8.05 7.7 0 1013.1 0 18.6 26.3 39.8 104.3 96.5 331.4
13/03 09:00 13 66 7.49 6.8 4 1013.1 0 17.3 24.3 35.8 93.7 84.9 291.1
12/03 09:00 14.8 60 7.6 7.2 4 1013.1 0 17.4 24.0 35.4 92.7 84.3 289.4
11/03 09:00 24.4 42 9.35 10.7 0 1013.1 0 20.7 24.1 37.5 98.6 94.7 327.0
10/03 09:00 15 93 11.93 13.9 0 1013.1 0 26.7 31.2 53.2 140.1 142.8 493.7
09/03 09:00 18.1 76 11.74 13.8 4 1013.1 0 26.1 29.7 50.3 132.5 134.4 465.0
08/03 09:00 14.2 77 9.4 10.2 4 1013.1 0 21.3 27.1 42.8 112.6 108.5 374.0
07/03 09:00 15.3 90 11.75 13.7 4 1013.1 0 26.3 30.7 52.2 137.5 139.6 482.7
06/03 09:00 13.9 92 11.03 12.6 0 1013.1 0 24.8 30.0 49.9 131.5 131.7 455.1
05/03 09:00 16 0 1013.1 0
04/03 09:00 16.5 87 12.22 14.4 0 1013.1 0 27.2 31.1 53.4 140.8 144.1 498.7
03/03 09:00 18 89 13.67 16.2 0 1013.1 16 30.2 33.2 58.8 155.1 162.2 562.0
02/03 09:00 19 99 16.13 18.8 0 1013.1 28 35.4 37.3 69.3 183.3 197.2 683.8
01/03 09:00 22.8 80 16.25 19.2 4 1013.1 0 35.3 35.9 66.5 175.8 189.2 656.6
28/02 09:00 21.9 83 16.02 18.9 0 1013.1 0.4 34.9 35.9 66.2 175.0 188.0 652.4
26/02 09:00 15.6 91 12.1 14.2 4 1013.1 0 27.0 31.3 53.5 141.0 144.1 498.5
25/02 09:00 18.2 94 14.61 17.2 4 1013.1 17 32.2 34.8 62.9 166.1 175.8 609.3
24/02 09:00 20.2 98 17.13 19.9 0 1013.1 2 37.4 38.7 73.0 193.0 209.6 727.2
23/02 09:00 16.8 81 11.58 13.6 0 1013.1 25 25.8 29.9 50.4 132.9 134.5 465.0
22/02 09:00 20.6 65 11.63 13.9 0 1013.1 0 25.7 28.7 48.3 127.1 128.7 445.2
21/02 09:00 17 71 10.27 11.7 0 1013.1 0 23.0 27.6 44.8 117.9 116.2 401.1
20/02 09:00 14.8 78 9.88 11.1 0 1013.1 0 22.3 27.7 44.5 117.0 114.2 393.9
19/02 09:00 13.8 78 9.29 10 0 1013.1 0 21.1 27.0 42.6 111.9 107.6 370.7
18/02 09:00 16.2 72 9.93 11.2 0 1013.1 1 22.3 27.3 43.9 115.4 112.8 389.2
16/02 09:00 21 68 12.46 15 0 1013.1 0 27.4 30.0 51.4 135.5 139.1 481.9
15/02 09:00 19.8 65 11.1 13.2 0 1013.1 0 24.6 28.1 46.6 122.6 122.9 425.0
14/02 09:00 13.7 80 9.47 10.3 0 1013.1 0 21.5 27.3 43.4 114.1 110.2 379.8
13/02 09:00 12.6 68 7.52 6.8 0 1013.1 0 17.3 24.5 36.1 94.5 85.7 293.9
12/02 09:00 14.4 68 8.41 8.7 0 1013.1 8 19.2 25.4 38.7 101.6 95.2 327.2
11/02 09:00 20 73 12.61 15.1 0 1013.1 0 27.8 30.6 52.7 139.0 143.0 495.4
10/02 09:00 18.1 89 13.75 16.3 0 1013.1 0 30.4 33.3 59.1 155.8 163.2 565.3
09/02 09:00 23.7 77 16.47 19.5 0 1013.1 0.2 35.7 35.9 66.7 176.3 190.2 660.1
08/02 09:00 24.1 64 14 17 4 1013.1 0 30.4 31.5 55.7 147.0 154.2 534.9
07/02 09:00 16.7 69 9.81 11 0 1013.1 0 22.0 27.0 43.1 113.4 110.5 381.2
06/02 09:00 15.2 75 9.73 10.9 4 1013.1 0 21.9 27.3 43.6 114.7 111.6 384.8
05/02 09:00 18.5 61 9.65 11 4 1013.1 0.6 21.6 26.2 41.5 109.2 105.9 365.3
04/02 09:00 19.9 53 9.11 10.2 4 1013.1 0 20.4 25.0 38.8 101.8 97.3 335.3
02/02 09:00 14.5 53 6.59 5 4 1013.1 0 15.3 22.6 31.8 83.0 72.2 246.7
01/02 09:00 17 70 10.13 11.5 2 1013.1 1 22.7 27.4 44.3 116.4 114.3 394.6
31/01 09:00 24 67 14.58 17.5 0 1013.1 0 31.7 32.5 58.2 153.7 162.4 563.5
30/01 09:00 24.5 64 14.32 17.3 1013.1 0 31.1 31.9 56.7 149.8 157.8 547.4
29/01 09:00 19.5 63 10.57 12.4 0 1013.1 0 23.5 27.4 44.6 117.4 116.4 402.2
28/01 09:00 25.5 59 13.97 16.9 0 1013.1 0 30.3 30.9 54.6 144.1 151.1 524.0
26/01 09:00 18 75 11.52 13.6 4 1013.1 0 25.6 29.4 49.4 130.2 131.6 455.0
25/01 09:00 23.6 48 10.21 12.1 4 1013.1 0 22.5 25.6 41.1 107.9 106.0 366.5
24/01 09:00 19.8 61 10.42 12.2 4 1013.1 0 23.2 27.0 43.9 115.4 114.0 393.9
23/01 09:00 14.8 59 7.47 6.9 0 1013.1 0 17.1 23.8 34.9 91.4 82.7 283.7

Last Refresh: 08-May-2026 12:07:29

Bureau of Meteorology